sensor_id;sensor_type;location;lat;lon;timestamp;pressure;altitude;pressure_sealevel;temperature;humidity
65276;BME280;51875;49.994;14.052;2023-03-15T00:00:01;97580.84;;;4.59;100.00
65276;BME280;51875;49.994;14.052;2023-03-15T00:01:18;97578.66;;;4.36;100.00
65276;BME280;51875;49.994;14.052;2023-03-15T00:02:35;97574.75;;;4.63;100.00
65276;BME280;51875;49.994;14.052;2023-03-15T00:03:50;97575.38;;;4.75;100.00
65276;BME280;51875;49.994;14.052;2023-03-15T00:05:06;97579.59;;;4.80;100.00
65276;BME280;51875;49.994;14.052;2023-03-15T00:06:22;97580.25;;;4.45;100.00
65276;BME280;51875;49.994;14.052;2023-03-15T00:07:38;97580.63;;;4.72;100.00
65276;BME280;51875;49.994;14.052;2023-03-15T00:08:53;97584.00;;;4.77;100.00
65276;BME280;51875;49.994;14.052;2023-03-15T00:10:10;97578.84;;;4.75;100.00
65276;BME280;51875;49.994;14.052;2023-03-15T00:11:25;97582.63;;;4.57;100.00
65276;BME280;51875;49.994;14.052;2023-03-15T00:12:40;97577.69;;;4.43;100.00
65276;BME280;51875;49.994;14.052;2023-03-15T00:14:00;97584.22;;;4.64;100.00
65276;BME280;51875;49.994;14.052;2023-03-15T00:15:16;97583.41;;;4.62;100.00
65276;BME280;51875;49.994;14.052;2023-03-15T00:16:32;97580.09;;;4.52;100.00
65276;BME280;51875;49.994;14.052;2023-03-15T00:17:47;97585.13;;;4.63;100.00
65276;BME280;51875;49.994;14.052;2023-03-15T00:19:03;97592.16;;;4.57;100.00
65276;BME280;51875;49.994;14.052;2023-03-15T00:20:19;97596.53;;;4.53;100.00
65276;BME280;51875;49.994;14.052;2023-03-15T00:21:34;97597.28;;;4.58;100.00
65276;BME280;51875;49.994;14.052;2023-03-15T00:22:50;97596.59;;;4.47;100.00
65276;BME280;51875;49.994;14.052;2023-03-15T00:24:05;97599.88;;;4.58;100.00
65276;BME280;51875;49.994;14.052;2023-03-15T00:25:21;97599.19;;;4.47;100.00
65276;BME280;51875;49.994;14.052;2023-03-15T00:26:37;97604.31;;;4.53;100.00
65276;BME280;51875;49.994;14.052;2023-03-15T00:27:53;97606.06;;;4.51;100.00
65276;BME280;51875;49.994;14.052;2023-03-15T00:29:09;97614.88;;;4.39;100.00
65276;BME280;51875;49.994;14.052;2023-03-15T00:30:25;97610.44;;;4.49;100.00
65276;BME280;51875;49.994;14.052;2023-03-15T00:31:40;97625.47;;;4.27;100.00
65276;BME280;51875;49.994;14.052;2023-03-15T00:32:56;97616.06;;;4.21;100.00
65276;BME280;51875;49.994;14.052;2023-03-15T00:34:11;97620.06;;;4.39;100.00
65276;BME280;51875;49.994;14.052;2023-03-15T00:35:28;97615.78;;;4.38;100.00
65276;BME280;51875;49.994;14.052;2023-03-15T00:36:44;97612.84;;;4.03;100.00
65276;BME280;51875;49.994;14.052;2023-03-15T00:38:00;97611.81;;;4.15;100.00
65276;BME280;51875;49.994;14.052;2023-03-15T00:39:15;97619.66;;;4.12;100.00
65276;BME280;51875;49.994;14.052;2023-03-15T00:40:31;97618.09;;;4.00;100.00
65276;BME280;51875;49.994;14.052;2023-03-15T00:41:47;97618.91;;;4.02;100.00
65276;BME280;51875;49.994;14.052;2023-03-15T00:43:02;97617.38;;;3.92;100.00
65276;BME280;51875;49.994;14.052;2023-03-15T00:44:18;97619.84;;;3.96;100.00
65276;BME280;51875;49.994;14.052;2023-03-15T00:45:34;97626.09;;;3.83;100.00
65276;BME280;51875;49.994;14.052;2023-03-15T00:46:50;97616.81;;;3.66;100.00
65276;BME280;51875;49.994;14.052;2023-03-15T00:48:05;97611.16;;;3.38;100.00
65276;BME280;51875;49.994;14.052;2023-03-15T00:49:21;97619.41;;;3.66;100.00
65276;BME280;51875;49.994;14.052;2023-03-15T00:50:36;97622.00;;;3.68;100.00
65276;BME280;51875;49.994;14.052;2023-03-15T00:51:54;97621.16;;;3.66;100.00
65276;BME280;51875;49.994;14.052;2023-03-15T00:53:10;97623.09;;;3.50;100.00
65276;BME280;51875;49.994;14.052;2023-03-15T00:54:26;97625.91;;;3.30;100.00
65276;BME280;51875;49.994;14.052;2023-03-15T00:55:41;97635.34;;;3.37;100.00
65276;BME280;51875;49.994;14.052;2023-03-15T00:56:57;97631.06;;;3.33;100.00
65276;BME280;51875;49.994;14.052;2023-03-15T00:58:13;97622.59;;;3.20;100.00
65276;BME280;51875;49.994;14.052;2023-03-15T00:59:31;97630.41;;;3.17;100.00
65276;BME280;51875;49.994;14.052;2023-03-15T01:00:50;97627.81;;;3.14;100.00
65276;BME280;51875;49.994;14.052;2023-03-15T01:02:06;97629.66;;;3.04;100.00
65276;BME280;51875;49.994;14.052;2023-03-15T01:03:22;97626.47;;;2.78;100.00
65276;BME280;51875;49.994;14.052;2023-03-15T01:04:37;97628.06;;;2.90;100.00
65276;BME280;51875;49.994;14.052;2023-03-15T01:05:53;97628.06;;;2.92;100.00
65276;BME280;51875;49.994;14.052;2023-03-15T01:07:09;97629.66;;;3.04;100.00
65276;BME280;51875;49.994;14.052;2023-03-15T01:08:26;97633.13;;;3.03;100.00
65276;BME280;51875;49.994;14.052;2023-03-15T01:09:42;97629.78;;;2.94;100.00
65276;BME280;51875;49.994;14.052;2023-03-15T01:11:06;97632.94;;;3.20;100.00
65276;BME280;51875;49.994;14.052;2023-03-15T01:12:22;97630.16;;;3.37;100.00
65276;BME280;51875;49.994;14.052;2023-03-15T01:13:38;97631.19;;;3.23;100.00
65276;BME280;51875;49.994;14.052;2023-03-15T01:14:54;97643.38;;;3.12;100.00
65276;BME280;51875;49.994;14.052;2023-03-15T01:16:12;97647.00;;;2.94;100.00
65276;BME280;51875;49.994;14.052;2023-03-15T01:17:28;97648.78;;;2.87;100.00
65276;BME280;51875;49.994;14.052;2023-03-15T01:18:43;97652.22;;;2.91;100.00
65276;BME280;51875;49.994;14.052;2023-03-15T01:19:59;97659.81;;;3.08;100.00
65276;BME280;51875;49.994;14.052;2023-03-15T01:21:15;97661.59;;;2.98;100.00
65276;BME280;51875;49.994;14.052;2023-03-15T01:22:30;97659.81;;;3.08;100.00
65276;BME280;51875;49.994;14.052;2023-03-15T01:23:46;97656.56;;;2.86;100.00
65276;BME280;51875;49.994;14.052;2023-03-15T01:25:02;97644.69;;;2.67;100.00
65276;BME280;51875;49.994;14.052;2023-03-15T01:26:18;97642.19;;;2.55;100.00
65276;BME280;51875;49.994;14.052;2023-03-15T01:27:33;97635.06;;;2.82;100.00
65276;BME280;51875;49.994;14.052;2023-03-15T01:28:49;97640.06;;;2.97;100.00
65276;BME280;51875;49.994;14.052;2023-03-15T01:30:06;97631.41;;;3.03;100.00
65276;BME280;51875;49.994;14.052;2023-03-15T01:31:27;97631.50;;;2.94;100.00
65276;BME280;51875;49.994;14.052;2023-03-15T01:32:43;97627.38;;;2.73;100.00
65276;BME280;51875;49.994;14.052;2023-03-15T01:33:59;97618.88;;;2.63;100.00
65276;BME280;51875;49.994;14.052;2023-03-15T01:35:15;97615.59;;;2.42;100.00
65276;BME280;51875;49.994;14.052;2023-03-15T01:36:31;97614.47;;;2.74;100.00
65276;BME280;51875;49.994;14.052;2023-03-15T01:37:50;97620.44;;;2.81;100.00
65276;BME280;51875;49.994;14.052;2023-03-15T01:39:05;97616.47;;;2.43;100.00
65276;BME280;51875;49.994;14.052;2023-03-15T01:40:21;97622.41;;;2.51;100.00
65276;BME280;51875;49.994;14.052;2023-03-15T01:41:37;97619.91;;;2.45;100.00
65276;BME280;51875;49.994;14.052;2023-03-15T01:43:13;97624.22;;;2.41;100.00
65276;BME280;51875;49.994;14.052;2023-03-15T01:44:55;97624.28;;;2.33;100.00
65276;BME280;51875;49.994;14.052;2023-03-15T01:46:26;97627.69;;;2.40;100.00
65276;BME280;51875;49.994;14.052;2023-03-15T01:47:42;97629.41;;;2.39;100.00
65276;BME280;51875;49.994;14.052;2023-03-15T01:50:19;97643.03;;;2.57;100.00
65276;BME280;51875;49.994;14.052;2023-03-15T01:52:04;97655.13;;;2.55;100.00
65276;BME280;51875;49.994;14.052;2023-03-15T01:53:22;97661.06;;;2.63;100.00
65276;BME280;51875;49.994;14.052;2023-03-15T01:54:47;97664.44;;;2.70;100.00
65276;BME280;51875;49.994;14.052;2023-03-15T01:56:06;97668.81;;;2.66;100.00
65276;BME280;51875;49.994;14.052;2023-03-15T01:57:50;97673.91;;;2.73;100.00
65276;BME280;51875;49.994;14.052;2023-03-15T01:59:20;97681.78;;;2.62;100.00
65276;BME280;51875;49.994;14.052;2023-03-15T02:00:36;97682.72;;;2.51;100.00
65276;BME280;51875;49.994;14.052;2023-03-15T02:01:53;97686.16;;;2.52;100.00
65276;BME280;51875;49.994;14.052;2023-03-15T02:03:12;97678.22;;;2.74;100.00
65276;BME280;51875;49.994;14.052;2023-03-15T02:04:38;97677.41;;;2.67;100.00
65276;BME280;51875;49.994;14.052;2023-03-15T02:06:00;97672.34;;;2.56;100.00
65276;BME280;51875;49.994;14.052;2023-03-15T02:07:17;97671.63;;;2.38;100.00
65276;BME280;51875;49.994;14.052;2023-03-15T02:08:38;97658.75;;;2.32;100.00
65276;BME280;51875;49.994;14.052;2023-03-15T02:10:09;97657.03;;;2.31;100.00
65276;BME280;51875;49.994;14.052;2023-03-15T02:11:26;97651.00;;;2.32;100.00
65276;BME280;51875;49.994;14.052;2023-03-15T02:12:45;97650.94;;;2.42;100.00
65276;BME280;51875;49.994;14.052;2023-03-15T02:14:03;97646.84;;;2.13;100.00
65276;BME280;51875;49.994;14.052;2023-03-15T02:15:19;97648.50;;;2.21;100.00
65276;BME280;51875;49.994;14.052;2023-03-15T02:16:35;97648.66;;;1.98;100.00
65276;BME280;51875;49.994;14.052;2023-03-15T02:17:52;97663.38;;;1.79;100.00
65276;BME280;51875;49.994;14.052;2023-03-15T02:19:17;97666.84;;;1.78;100.00
65276;BME280;51875;49.994;14.052;2023-03-15T02:20:47;97666.50;;;2.28;100.00
65276;BME280;51875;49.994;14.052;2023-03-15T02:23:30;97677.81;;;2.09;100.00
65276;BME280;51875;49.994;14.052;2023-03-15T02:25:16;97679.47;;;2.20;100.00
65276;BME280;51875;49.994;14.052;2023-03-15T02:27:51;97689.97;;;1.92;100.00
65276;BME280;51875;49.994;14.052;2023-03-15T02:29:07;97693.38;;;2.03;100.00
65276;BME280;51875;49.994;14.052;2023-03-15T02:30:23;97699.31;;;2.16;100.00
65276;BME280;51875;49.994;14.052;2023-03-15T02:31:39;97703.56;;;2.22;100.00
65276;BME280;51875;49.994;14.052;2023-03-15T02:32:57;97694.06;;;2.32;100.00
65276;BME280;51875;49.994;14.052;2023-03-15T02:34:14;97698.22;;;2.53;100.00
65276;BME280;51875;49.994;14.052;2023-03-15T02:35:31;97709.41;;;2.50;100.00
65276;BME280;51875;49.994;14.052;2023-03-15T02:36:47;97713.72;;;2.53;100.00
65276;BME280;51875;49.994;14.052;2023-03-15T02:38:02;97713.66;;;2.58;100.00
65276;BME280;51875;49.994;14.052;2023-03-15T02:39:19;97714.63;;;2.44;100.00
65276;BME280;51875;49.994;14.052;2023-03-15T02:40:35;97718.13;;;2.38;100.00
65276;BME280;51875;49.994;14.052;2023-03-15T02:42:00;97717.31;;;2.32;100.00
65276;BME280;51875;49.994;14.052;2023-03-15T02:43:19;97723.41;;;2.18;100.00
65276;BME280;51875;49.994;14.052;2023-03-15T02:44:39;97733.03;;;1.85;100.00
65276;BME280;51875;49.994;14.052;2023-03-15T02:45:56;97733.94;;;1.72;100.00
65276;BME280;51875;49.994;14.052;2023-03-15T02:47:19;97727.97;;;1.63;100.00
65276;BME280;51875;49.994;14.052;2023-03-15T02:48:37;97734.88;;;1.61;100.00
65276;BME280;51875;49.994;14.052;2023-03-15T02:49:53;97736.50;;;1.76;100.00
65276;BME280;51875;49.994;14.052;2023-03-15T02:51:20;97736.50;;;1.79;100.00
65276;BME280;51875;49.994;14.052;2023-03-15T02:52:36;97743.34;;;1.91;100.00
65276;BME280;51875;49.994;14.052;2023-03-15T02:53:51;97748.47;;;1.93;100.00
65276;BME280;51875;49.994;14.052;2023-03-15T02:55:07;97747.63;;;1.91;100.00
65276;BME280;51875;49.994;14.052;2023-03-15T02:56:23;97742.53;;;1.85;100.00
65276;BME280;51875;49.994;14.052;2023-03-15T02:57:39;97744.31;;;1.65;100.00
65276;BME280;51875;49.994;14.052;2023-03-15T02:58:54;97741.53;;;2.07;100.00
65276;BME280;51875;49.994;14.052;2023-03-15T03:00:12;97743.44;;;1.71;100.00
65276;BME280;51875;49.994;14.052;2023-03-15T03:01:28;97745.13;;;1.77;100.00
65276;BME280;51875;49.994;14.052;2023-03-15T03:02:47;97745.88;;;1.97;100.00
65276;BME280;51875;49.994;14.052;2023-03-15T03:04:03;97745.75;;;2.21;100.00
65276;BME280;51875;49.994;14.052;2023-03-15T03:05:20;97753.66;;;1.90;100.00
65276;BME280;51875;49.994;14.052;2023-03-15T03:06:35;97753.78;;;1.59;100.00
65276;BME280;51875;49.994;14.052;2023-03-15T03:07:51;97760.66;;;1.60;100.00
65276;BME280;51875;49.994;14.052;2023-03-15T03:09:07;97760.59;;;1.74;100.00
65276;BME280;51875;49.994;14.052;2023-03-15T03:10:23;97755.31;;;2.08;100.00
65276;BME280;51875;49.994;14.052;2023-03-15T03:11:39;97759.72;;;1.86;100.00
65276;BME280;51875;49.994;14.052;2023-03-15T03:12:54;97767.47;;;1.81;100.00
65276;BME280;51875;49.994;14.052;2023-03-15T03:14:10;97772.66;;;1.67;100.00
65276;BME280;51875;49.994;14.052;2023-03-15T03:15:28;97767.38;;;2.00;100.00
65276;BME280;51875;49.994;14.052;2023-03-15T03:16:44;97769.94;;;2.04;100.00
65276;BME280;51875;49.994;14.052;2023-03-15T03:17:59;97770.09;;;1.73;100.00
65276;BME280;51875;49.994;14.052;2023-03-15T03:19:15;97772.69;;;1.59;100.00
65276;BME280;51875;49.994;14.052;2023-03-15T03:20:31;97776.91;;;1.85;100.00
65276;BME280;51875;49.994;14.052;2023-03-15T03:21:47;97765.69;;;2.00;100.00
65276;BME280;51875;49.994;14.052;2023-03-15T03:23:03;97773.50;;;1.85;100.00
65276;BME280;51875;49.994;14.052;2023-03-15T03:24:20;97778.75;;;1.57;100.00
65276;BME280;51875;49.994;14.052;2023-03-15T03:25:36;97774.47;;;1.46;100.00
65276;BME280;51875;49.994;14.052;2023-03-15T03:26:52;97781.31;;;1.46;100.00
65276;BME280;51875;49.994;14.052;2023-03-15T03:28:12;97780.44;;;1.64;100.00
65276;BME280;51875;49.994;14.052;2023-03-15T03:29:27;97776.06;;;1.83;100.00
65276;BME280;51875;49.994;14.052;2023-03-15T03:30:43;97780.25;;;2.09;100.00
65276;BME280;51875;49.994;14.052;2023-03-15T03:31:59;97774.13;;;2.29;100.00
65276;BME280;51875;49.994;14.052;2023-03-15T03:33:15;97780.22;;;2.15;100.00
65276;BME280;51875;49.994;14.052;2023-03-15T03:34:31;97774.13;;;2.30;100.00
65276;BME280;51875;49.994;14.052;2023-03-15T03:35:47;97781.94;;;2.18;100.00
65276;BME280;51875;49.994;14.052;2023-03-15T03:37:02;97773.38;;;2.11;100.00
65276;BME280;51875;49.994;14.052;2023-03-15T03:38:18;97780.41;;;1.75;100.00
65276;BME280;51875;49.994;14.052;2023-03-15T03:39:34;97777.81;;;1.81;100.00
65276;BME280;51875;49.994;14.052;2023-03-15T03:40:49;97783.78;;;1.91;100.00
65276;BME280;51875;49.994;14.052;2023-03-15T03:42:05;97776.88;;;1.94;100.00
65276;BME280;51875;49.994;14.052;2023-03-15T03:43:48;97770.81;;;2.03;100.00
65276;BME280;51875;49.994;14.052;2023-03-15T03:45:14;97784.63;;;1.96;100.00
65276;BME280;51875;49.994;14.052;2023-03-15T03:46:48;97786.38;;;1.88;100.00
65276;BME280;51875;49.994;14.052;2023-03-15T03:48:10;97788.88;;;2.13;100.00
65276;BME280;51875;49.994;14.052;2023-03-15T03:49:32;97798.44;;;1.86;100.00
65276;BME280;51875;49.994;14.052;2023-03-15T03:51:00;97801.84;;;1.94;100.00
65276;BME280;51875;49.994;14.052;2023-03-15T03:52:25;97806.09;;;2.10;100.00
65276;BME280;51875;49.994;14.052;2023-03-15T03:53:41;97809.50;;;2.17;100.00
65276;BME280;51875;49.994;14.052;2023-03-15T03:55:00;97815.53;;;2.15;100.00
65276;BME280;51875;49.994;14.052;2023-03-15T03:56:25;97815.53;;;2.13;100.00
65276;BME280;51875;49.994;14.052;2023-03-15T03:57:43;97817.22;;;2.23;100.00
65276;BME280;51875;49.994;14.052;2023-03-15T03:59:02;97812.88;;;2.35;100.00
65276;BME280;51875;49.994;14.052;2023-03-15T04:00:22;97818.88;;;2.35;100.00
65276;BME280;51875;49.994;14.052;2023-03-15T04:01:41;97820.69;;;2.24;100.00
65276;BME280;51875;49.994;14.052;2023-03-15T04:03:04;97823.22;;;2.32;100.00
65276;BME280;51875;49.994;14.052;2023-03-15T04:04:20;97832.69;;;2.31;100.00
65276;BME280;51875;49.994;14.052;2023-03-15T04:07:15;97839.72;;;1.98;100.00
65276;BME280;51875;49.994;14.052;2023-03-15T04:08:48;97842.31;;;1.90;100.00
65276;BME280;51875;49.994;14.052;2023-03-15T04:10:04;97844.88;;;2.03;100.00
65276;BME280;51875;49.994;14.052;2023-03-15T04:11:24;97841.34;;;2.18;100.00
65276;BME280;51875;49.994;14.052;2023-03-15T04:12:42;97850.84;;;2.11;100.00
65276;BME280;51875;49.994;14.052;2023-03-15T04:14:43;97849.16;;;1.99;100.00
65276;BME280;51875;49.994;14.052;2023-03-15T04:16:13;97853.44;;;2.13;100.00
65276;BME280;51875;49.994;14.052;2023-03-15T04:17:29;97855.97;;;2.20;100.00
65276;BME280;51875;49.994;14.052;2023-03-15T04:18:44;97866.38;;;2.05;100.00
65276;BME280;51875;49.994;14.052;2023-03-15T04:20:00;97868.03;;;2.18;100.00
65276;BME280;51875;49.994;14.052;2023-03-15T04:21:27;97875.75;;;2.24;100.00
65276;BME280;51875;49.994;14.052;2023-03-15T04:22:46;97871.44;;;2.26;100.00
65276;BME280;51875;49.994;14.052;2023-03-15T04:24:03;97874.88;;;2.29;100.00
65276;BME280;51875;49.994;14.052;2023-03-15T04:25:20;97879.19;;;2.22;100.00
65276;BME280;51875;49.994;14.052;2023-03-15T04:26:36;97877.50;;;2.22;100.00
65276;BME280;51875;49.994;14.052;2023-03-15T04:27:52;97881.72;;;2.42;100.00
65276;BME280;51875;49.994;14.052;2023-03-15T04:29:14;97875.69;;;2.45;100.00
65276;BME280;51875;49.994;14.052;2023-03-15T04:30:30;97879.97;;;2.50;100.00
65276;BME280;51875;49.994;14.052;2023-03-15T04:31:45;97888.56;;;2.48;100.00
65276;BME280;51875;49.994;14.052;2023-03-15T04:33:01;97886.88;;;2.37;100.00
65276;BME280;51875;49.994;14.052;2023-03-15T04:34:17;97890.38;;;2.32;100.00
65276;BME280;51875;49.994;14.052;2023-03-15T04:35:34;97891.22;;;2.37;100.00
65276;BME280;51875;49.994;14.052;2023-03-15T04:36:51;97893.06;;;1.93;100.00
65276;BME280;51875;49.994;14.052;2023-03-15T04:38:09;97900.81;;;1.82;100.00
65276;BME280;51875;49.994;14.052;2023-03-15T04:39:24;97896.53;;;1.59;100.00
65276;BME280;51875;49.994;14.052;2023-03-15T04:40:40;97908.56;;;1.82;100.00
65276;BME280;51875;49.994;14.052;2023-03-15T04:41:57;97906.84;;;1.86;100.00
65276;BME280;51875;49.994;14.052;2023-03-15T04:43:12;97911.97;;;2.04;100.00
65276;BME280;51875;49.994;14.052;2023-03-15T04:44:28;97910.22;;;2.14;100.00
65276;BME280;51875;49.994;14.052;2023-03-15T04:45:43;97909.38;;;2.04;100.00
65276;BME280;51875;49.994;14.052;2023-03-15T04:46:59;97916.28;;;1.99;100.00
65276;BME280;51875;49.994;14.052;2023-03-15T04:48:15;97909.44;;;1.86;100.00
65276;BME280;51875;49.994;14.052;2023-03-15T04:49:30;97918.03;;;1.81;100.00
65276;BME280;51875;49.994;14.052;2023-03-15T04:50:46;97916.31;;;1.96;100.00
65276;BME280;51875;49.994;14.052;2023-03-15T04:52:02;97924.03;;;1.99;100.00
65276;BME280;51875;49.994;14.052;2023-03-15T04:53:17;97919.72;;;2.01;100.00
65276;BME280;51875;49.994;14.052;2023-03-15T04:54:33;97925.78;;;1.97;100.00
65276;BME280;51875;49.994;14.052;2023-03-15T04:55:48;97927.47;;;2.00;100.00
65276;BME280;51875;49.994;14.052;2023-03-15T04:57:04;97923.16;;;2.02;100.00
65276;BME280;51875;49.994;14.052;2023-03-15T04:58:20;97928.31;;;2.03;100.00
65276;BME280;51875;49.994;14.052;2023-03-15T04:59:35;97925.72;;;2.11;100.00
65276;BME280;51875;49.994;14.052;2023-03-15T05:00:52;97929.19;;;2.10;100.00
65276;BME280;51875;49.994;14.052;2023-03-15T05:02:08;97939.53;;;1.90;100.00
65276;BME280;51875;49.994;14.052;2023-03-15T05:03:24;97938.66;;;2.05;100.00
65276;BME280;51875;49.994;14.052;2023-03-15T05:04:39;97941.25;;;2.05;100.00
65276;BME280;51875;49.994;14.052;2023-03-15T05:05:55;97942.09;;;1.97;100.00
65276;BME280;51875;49.994;14.052;2023-03-15T05:07:11;97949.03;;;1.69;100.00
65276;BME280;51875;49.994;14.052;2023-03-15T05:08:26;97950.75;;;1.50;100.00
65276;BME280;51875;49.994;14.052;2023-03-15T05:09:42;97952.47;;;1.66;100.00
65276;BME280;51875;49.994;14.052;2023-03-15T05:11:01;97950.72;;;1.67;100.00
65276;BME280;51875;49.994;14.052;2023-03-15T05:12:17;97948.16;;;1.70;100.00
65276;BME280;51875;49.994;14.052;2023-03-15T05:13:33;97955.91;;;1.54;100.00
65276;BME280;51875;49.994;14.052;2023-03-15T05:14:48;97955.03;;;1.37;100.00
65276;BME280;51875;49.994;14.052;2023-03-15T05:16:04;97957.59;;;1.26;100.00
65276;BME280;51875;49.994;14.052;2023-03-15T05:17:20;97949.88;;;1.43;100.00
65276;BME280;51875;49.994;14.052;2023-03-15T05:18:36;97954.16;;;1.29;100.00
65276;BME280;51875;49.994;14.052;2023-03-15T05:19:52;97964.44;;;1.22;100.00
65276;BME280;51875;49.994;14.052;2023-03-15T05:21:08;97960.19;;;1.20;100.00
65276;BME280;51875;49.994;14.052;2023-03-15T05:22:23;97966.19;;;1.25;100.00
65276;BME280;51875;49.994;14.052;2023-03-15T05:23:40;97970.50;;;1.31;100.00
65276;BME280;51875;49.994;14.052;2023-03-15T05:24:55;97971.34;;;1.28;100.00
65276;BME280;51875;49.994;14.052;2023-03-15T05:26:11;97981.63;;;1.11;100.00
65276;BME280;51875;49.994;14.052;2023-03-15T05:27:28;97976.44;;;0.94;100.00
65276;BME280;51875;49.994;14.052;2023-03-15T05:28:45;97979.00;;;0.89;100.00
65276;BME280;51875;49.994;14.052;2023-03-15T05:30:01;97984.91;;;0.65;100.00
65276;BME280;51875;49.994;14.052;2023-03-15T05:31:17;97979.72;;;0.59;100.00
65276;BME280;51875;49.994;14.052;2023-03-15T05:32:33;97979.81;;;0.82;100.00
65276;BME280;51875;49.994;14.052;2023-03-15T05:33:49;97981.50;;;0.70;100.00
65276;BME280;51875;49.994;14.052;2023-03-15T05:35:09;97990.97;;;0.75;100.00
65276;BME280;51875;49.994;14.052;2023-03-15T05:36:25;97990.06;;;0.66;100.00
65276;BME280;51875;49.994;14.052;2023-03-15T05:37:41;97991.81;;;0.75;100.00
65276;BME280;51875;49.994;14.052;2023-03-15T05:38:56;98000.41;;;0.73;100.00
65276;BME280;51875;49.994;14.052;2023-03-15T05:40:12;98000.44;;;0.83;100.00
65276;BME280;51875;49.994;14.052;2023-03-15T05:41:30;98000.44;;;0.82;100.00
65276;BME280;51875;49.994;14.052;2023-03-15T05:42:45;98006.53;;;1.03;100.00
65276;BME280;51875;49.994;14.052;2023-03-15T05:44:01;98005.69;;;1.05;100.00
65276;BME280;51875;49.994;14.052;2023-03-15T05:45:16;98016.03;;;1.19;100.00
65276;BME280;51875;49.994;14.052;2023-03-15T05:46:32;98006.56;;;1.12;100.00
65276;BME280;51875;49.994;14.052;2023-03-15T05:47:48;98011.72;;;1.15;100.00
65276;BME280;51875;49.994;14.052;2023-03-15T05:49:04;98015.16;;;1.23;100.00
65276;BME280;51875;49.994;14.052;2023-03-15T05:50:19;98017.75;;;1.22;100.00
65276;BME280;51875;49.994;14.052;2023-03-15T05:51:35;98019.47;;;1.21;100.00
65276;BME280;51875;49.994;14.052;2023-03-15T05:52:51;98024.56;;;1.06;100.00
65276;BME280;51875;49.994;14.052;2023-03-15T05:54:07;98023.69;;;0.97;100.00
65276;BME280;51875;49.994;14.052;2023-03-15T05:55:23;98029.59;;;0.67;100.00
65276;BME280;51875;49.994;14.052;2023-03-15T05:56:39;98039.84;;;0.56;100.00
65276;BME280;51875;49.994;14.052;2023-03-15T05:57:54;98041.59;;;0.68;100.00
65276;BME280;51875;49.994;14.052;2023-03-15T05:59:10;98037.44;;;1.01;100.00
65276;BME280;51875;49.994;14.052;2023-03-15T06:00:28;98042.50;;;0.76;100.00
65276;BME280;51875;49.994;14.052;2023-03-15T06:01:43;98044.25;;;0.77;100.00
65276;BME280;51875;49.994;14.052;2023-03-15T06:02:59;98042.50;;;0.81;100.00
65276;BME280;51875;49.994;14.052;2023-03-15T06:04:15;98048.53;;;0.81;100.00
65276;BME280;51875;49.994;14.052;2023-03-15T06:05:30;98050.34;;;0.98;100.00
65276;BME280;51875;49.994;14.052;2023-03-15T06:06:50;98061.47;;;0.86;100.00
65276;BME280;51875;49.994;14.052;2023-03-15T06:08:05;98049.44;;;0.97;100.00
65276;BME280;51875;49.994;14.052;2023-03-15T06:09:21;98052.88;;;0.93;100.00
65276;BME280;51875;49.994;14.052;2023-03-15T06:10:37;98055.50;;;1.03;100.00
65276;BME280;51875;49.994;14.052;2023-03-15T06:11:53;98059.03;;;1.31;100.00
65276;BME280;51875;49.994;14.052;2023-03-15T06:13:09;98061.63;;;1.39;100.00
65276;BME280;51875;49.994;14.052;2023-03-15T06:14:26;98063.38;;;1.52;100.00
65276;BME280;51875;49.994;14.052;2023-03-15T06:15:41;98064.28;;;1.67;100.00
65276;BME280;51875;49.994;14.052;2023-03-15T06:16:57;98065.16;;;1.78;100.00
65276;BME280;51875;49.994;14.052;2023-03-15T06:18:13;98072.91;;;1.78;100.00
65276;BME280;51875;49.994;14.052;2023-03-15T06:19:31;98073.78;;;1.76;100.00
65276;BME280;51875;49.994;14.052;2023-03-15T06:20:55;98078.06;;;1.81;100.00
65276;BME280;51875;49.994;14.052;2023-03-15T06:22:17;98070.34;;;1.88;100.00
65276;BME280;51875;49.994;14.052;2023-03-15T06:23:37;98078.94;;;1.87;100.00
65276;BME280;51875;49.994;14.052;2023-03-15T06:24:53;98074.63;;;1.84;100.00
65276;BME280;51875;49.994;14.052;2023-03-15T06:26:09;98075.50;;;1.94;100.00
65276;BME280;51875;49.994;14.052;2023-03-15T06:27:25;98077.19;;;1.79;100.00
65276;BME280;51875;49.994;14.052;2023-03-15T06:28:40;98072.88;;;1.74;100.00
65276;BME280;51875;49.994;14.052;2023-03-15T06:29:56;98072.91;;;1.78;100.00
65276;BME280;51875;49.994;14.052;2023-03-15T06:31:13;98083.25;;;1.91;100.00
65276;BME280;51875;49.994;14.052;2023-03-15T06:32:28;98080.66;;;1.91;100.00
65276;BME280;51875;49.994;14.052;2023-03-15T06:33:44;98079.81;;;1.96;100.00
65276;BME280;51875;49.994;14.052;2023-03-15T06:35:00;98078.09;;;2.03;100.00
65276;BME280;51875;49.994;14.052;2023-03-15T06:36:15;98084.97;;;1.95;100.00
65276;BME280;51875;49.994;14.052;2023-03-15T06:37:31;98087.56;;;1.93;100.00
65276;BME280;51875;49.994;14.052;2023-03-15T06:38:47;98091.84;;;2.05;100.00
65276;BME280;51875;49.994;14.052;2023-03-15T06:40:07;98088.41;;;2.19;100.00
65276;BME280;51875;49.994;14.052;2023-03-15T06:41:23;98090.13;;;2.15;100.00
65276;BME280;51875;49.994;14.052;2023-03-15T06:42:40;98091.84;;;2.16;100.00
65276;BME280;51875;49.994;14.052;2023-03-15T06:43:56;98096.16;;;2.06;100.00
65276;BME280;51875;49.994;14.052;2023-03-15T06:45:11;98094.44;;;2.16;100.00
65276;BME280;51875;49.994;14.052;2023-03-15T06:46:27;98096.16;;;2.22;100.00
65276;BME280;51875;49.994;14.052;2023-03-15T06:47:42;98094.47;;;2.24;100.00
65276;BME280;51875;49.994;14.052;2023-03-15T06:48:59;98102.22;;;2.24;100.00
65276;BME280;51875;49.994;14.052;2023-03-15T06:50:14;98099.59;;;2.16;100.00
65276;BME280;51875;49.994;14.052;2023-03-15T06:51:29;98099.63;;;1.99;100.00